sensor_id;sensor_type;location;lat;lon;timestamp;P1;durP1;ratioP1;P2;durP2;ratioP2
19643;SDS011;9970;-36.854;174.870;2023-07-08T00:02:13;8.77;;;2.77;;
19643;SDS011;9970;-36.854;174.870;2023-07-08T00:04:46;5.27;;;2.00;;
19643;SDS011;9970;-36.854;174.870;2023-07-08T00:07:20;2.13;;;2.03;;
19643;SDS011;9970;-36.854;174.870;2023-07-08T00:09:53;2.90;;;2.23;;
19643;SDS011;9970;-36.854;174.870;2023-07-08T00:12:26;2.13;;;1.93;;
19643;SDS011;9970;-36.854;174.870;2023-07-08T00:15:01;3.87;;;2.37;;
19643;SDS011;9970;-36.854;174.870;2023-07-08T00:17:34;1.97;;;1.80;;
19643;SDS011;9970;-36.854;174.870;2023-07-08T00:20:20;3.37;;;2.03;;
19643;SDS011;9970;-36.854;174.870;2023-07-08T00:22:55;1.93;;;1.83;;
19643;SDS011;9970;-36.854;174.870;2023-07-08T00:25:33;4.63;;;2.47;;
19643;SDS011;9970;-36.854;174.870;2023-07-08T00:28:16;2.17;;;2.07;;
19643;SDS011;9970;-36.854;174.870;2023-07-08T00:30:50;2.00;;;1.80;;
19643;SDS011;9970;-36.854;174.870;2023-07-08T00:33:26;2.30;;;2.20;;
19643;SDS011;9970;-36.854;174.870;2023-07-08T00:35:59;2.17;;;1.97;;
19643;SDS011;9970;-36.854;174.870;2023-07-08T00:38:32;2.97;;;2.77;;
19643;SDS011;9970;-36.854;174.870;2023-07-08T00:43:56;5.30;;;2.33;;
19643;SDS011;9970;-36.854;174.870;2023-07-08T00:51:45;5.00;;;2.23;;
19643;SDS011;9970;-36.854;174.870;2023-07-08T00:54:18;3.33;;;2.43;;
19643;SDS011;9970;-36.854;174.870;2023-07-08T00:56:52;2.27;;;2.27;;
19643;SDS011;9970;-36.854;174.870;2023-07-08T00:59:31;2.90;;;2.80;;
19643;SDS011;9970;-36.854;174.870;2023-07-08T01:02:17;5.70;;;2.43;;
19643;SDS011;9970;-36.854;174.870;2023-07-08T01:05:01;4.90;;;2.60;;
19643;SDS011;9970;-36.854;174.870;2023-07-08T01:07:33;5.53;;;3.40;;
19643;SDS011;9970;-36.854;174.870;2023-07-08T01:10:08;3.80;;;2.67;;
19643;SDS011;9970;-36.854;174.870;2023-07-08T01:12:50;7.80;;;2.37;;
19643;SDS011;9970;-36.854;174.870;2023-07-08T01:15:30;3.07;;;2.33;;
19643;SDS011;9970;-36.854;174.870;2023-07-08T01:18:02;6.77;;;2.53;;
19643;SDS011;9970;-36.854;174.870;2023-07-08T01:20:36;3.27;;;2.97;;
19643;SDS011;9970;-36.854;174.870;2023-07-08T01:23:10;2.67;;;2.10;;
19643;SDS011;9970;-36.854;174.870;2023-07-08T01:25:43;5.67;;;3.30;;
19643;SDS011;9970;-36.854;174.870;2023-07-08T01:28:17;3.83;;;2.30;;
19643;SDS011;9970;-36.854;174.870;2023-07-08T01:30:51;2.53;;;2.33;;
19643;SDS011;9970;-36.854;174.870;2023-07-08T01:33:26;2.63;;;2.53;;
19643;SDS011;9970;-36.854;174.870;2023-07-08T01:36:00;3.27;;;2.17;;
19643;SDS011;9970;-36.854;174.870;2023-07-08T01:38:33;4.23;;;2.43;;
19643;SDS011;9970;-36.854;174.870;2023-07-08T01:41:10;5.17;;;2.20;;
19643;SDS011;9970;-36.854;174.870;2023-07-08T01:43:46;2.47;;;2.27;;
19643;SDS011;9970;-36.854;174.870;2023-07-08T01:46:23;2.30;;;2.30;;
19643;SDS011;9970;-36.854;174.870;2023-07-08T01:48:57;1.50;;;1.50;;
19643;SDS011;9970;-36.854;174.870;2023-07-08T01:51:32;1.77;;;1.67;;
19643;SDS011;9970;-36.854;174.870;2023-07-08T01:54:05;2.73;;;1.80;;
19643;SDS011;9970;-36.854;174.870;2023-07-08T01:56:38;1.87;;;1.87;;
19643;SDS011;9970;-36.854;174.870;2023-07-08T01:59:14;1.50;;;1.50;;
19643;SDS011;9970;-36.854;174.870;2023-07-08T02:01:47;3.80;;;2.30;;
19643;SDS011;9970;-36.854;174.870;2023-07-08T02:04:22;1.87;;;1.87;;
19643;SDS011;9970;-36.854;174.870;2023-07-08T02:06:56;3.07;;;2.97;;
19643;SDS011;9970;-36.854;174.870;2023-07-08T02:09:31;2.00;;;1.80;;
19643;SDS011;9970;-36.854;174.870;2023-07-08T02:12:04;2.03;;;1.93;;
19643;SDS011;9970;-36.854;174.870;2023-07-08T02:14:37;3.80;;;1.80;;
19643;SDS011;9970;-36.854;174.870;2023-07-08T02:17:15;6.30;;;2.30;;
19643;SDS011;9970;-36.854;174.870;2023-07-08T02:19:48;2.00;;;1.90;;
19643;SDS011;9970;-36.854;174.870;2023-07-08T02:22:23;2.00;;;1.73;;
19643;SDS011;9970;-36.854;174.870;2023-07-08T02:24:56;2.13;;;1.70;;
19643;SDS011;9970;-36.854;174.870;2023-07-08T02:27:29;1.70;;;1.70;;
19643;SDS011;9970;-36.854;174.870;2023-07-08T02:30:02;2.03;;;1.93;;
19643;SDS011;9970;-36.854;174.870;2023-07-08T02:32:36;1.83;;;1.57;;
19643;SDS011;9970;-36.854;174.870;2023-07-08T02:35:09;1.60;;;1.50;;
19643;SDS011;9970;-36.854;174.870;2023-07-08T02:37:43;2.57;;;2.20;;
19643;SDS011;9970;-36.854;174.870;2023-07-08T02:40:16;4.83;;;2.23;;
19643;SDS011;9970;-36.854;174.870;2023-07-08T02:42:49;1.70;;;1.70;;
19643;SDS011;9970;-36.854;174.870;2023-07-08T02:45:22;1.60;;;1.60;;
19643;SDS011;9970;-36.854;174.870;2023-07-08T02:47:56;1.90;;;1.90;;
19643;SDS011;9970;-36.854;174.870;2023-07-08T02:50:29;1.30;;;1.30;;
19643;SDS011;9970;-36.854;174.870;2023-07-08T02:53:02;1.30;;;1.30;;
19643;SDS011;9970;-36.854;174.870;2023-07-08T02:55:35;1.50;;;1.50;;
19643;SDS011;9970;-36.854;174.870;2023-07-08T02:58:08;1.83;;;1.73;;
19643;SDS011;9970;-36.854;174.870;2023-07-08T03:00:42;8.60;;;4.50;;
19643;SDS011;9970;-36.854;174.870;2023-07-08T03:03:15;3.63;;;3.00;;
19643;SDS011;9970;-36.854;174.870;2023-07-08T03:06:00;1.30;;;1.30;;
19643;SDS011;9970;-36.854;174.870;2023-07-08T03:08:32;1.53;;;1.30;;
19643;SDS011;9970;-36.854;174.870;2023-07-08T03:11:05;3.13;;;1.50;;
19643;SDS011;9970;-36.854;174.870;2023-07-08T03:13:42;3.37;;;1.30;;
19643;SDS011;9970;-36.854;174.870;2023-07-08T03:16:15;1.90;;;1.80;;
19643;SDS011;9970;-36.854;174.870;2023-07-08T03:18:48;2.80;;;1.20;;
19643;SDS011;9970;-36.854;174.870;2023-07-08T03:21:21;1.40;;;1.30;;
19643;SDS011;9970;-36.854;174.870;2023-07-08T03:23:54;2.13;;;1.60;;
19643;SDS011;9970;-36.854;174.870;2023-07-08T03:26:27;10.07;;;1.90;;
19643;SDS011;9970;-36.854;174.870;2023-07-08T03:29:00;1.70;;;1.70;;
19643;SDS011;9970;-36.854;174.870;2023-07-08T03:31:33;2.67;;;1.53;;
19643;SDS011;9970;-36.854;174.870;2023-07-08T03:34:07;6.53;;;1.20;;
19643;SDS011;9970;-36.854;174.870;2023-07-08T03:36:47;2.00;;;1.80;;
19643;SDS011;9970;-36.854;174.870;2023-07-08T03:39:23;1.80;;;1.30;;
19643;SDS011;9970;-36.854;174.870;2023-07-08T03:41:56;1.43;;;1.40;;
19643;SDS011;9970;-36.854;174.870;2023-07-08T03:44:29;4.87;;;1.87;;
19643;SDS011;9970;-36.854;174.870;2023-07-08T03:47:03;1.03;;;1.03;;
19643;SDS011;9970;-36.854;174.870;2023-07-08T03:49:36;2.47;;;1.40;;
19643;SDS011;9970;-36.854;174.870;2023-07-08T03:52:10;3.10;;;1.87;;
19643;SDS011;9970;-36.854;174.870;2023-07-08T03:54:46;1.70;;;1.60;;
19643;SDS011;9970;-36.854;174.870;2023-07-08T03:57:19;2.70;;;1.43;;
19643;SDS011;9970;-36.854;174.870;2023-07-08T03:59:53;6.77;;;1.50;;
19643;SDS011;9970;-36.854;174.870;2023-07-08T04:02:26;1.80;;;1.80;;
19643;SDS011;9970;-36.854;174.870;2023-07-08T04:04:59;4.87;;;1.67;;
19643;SDS011;9970;-36.854;174.870;2023-07-08T04:07:33;1.83;;;1.40;;
19643;SDS011;9970;-36.854;174.870;2023-07-08T04:10:06;1.53;;;1.53;;
19643;SDS011;9970;-36.854;174.870;2023-07-08T04:12:41;1.40;;;1.40;;
19643;SDS011;9970;-36.854;174.870;2023-07-08T04:15:14;1.90;;;1.43;;
19643;SDS011;9970;-36.854;174.870;2023-07-08T04:17:48;2.43;;;1.60;;
19643;SDS011;9970;-36.854;174.870;2023-07-08T04:20:21;1.93;;;1.83;;
19643;SDS011;9970;-36.854;174.870;2023-07-08T04:22:55;1.67;;;1.67;;
19643;SDS011;9970;-36.854;174.870;2023-07-08T04:25:28;2.07;;;1.83;;
19643;SDS011;9970;-36.854;174.870;2023-07-08T04:28:01;1.80;;;1.80;;
19643;SDS011;9970;-36.854;174.870;2023-07-08T04:30:35;1.50;;;1.40;;
19643;SDS011;9970;-36.854;174.870;2023-07-08T04:33:09;3.03;;;1.90;;
19643;SDS011;9970;-36.854;174.870;2023-07-08T04:35:43;1.80;;;1.73;;
19643;SDS011;9970;-36.854;174.870;2023-07-08T04:38:21;2.90;;;2.67;;
19643;SDS011;9970;-36.854;174.870;2023-07-08T04:40:55;2.00;;;1.90;;
19643;SDS011;9970;-36.854;174.870;2023-07-08T04:43:28;2.10;;;2.00;;
19643;SDS011;9970;-36.854;174.870;2023-07-08T04:46:02;1.67;;;1.57;;
19643;SDS011;9970;-36.854;174.870;2023-07-08T04:48:35;1.50;;;1.50;;
19643;SDS011;9970;-36.854;174.870;2023-07-08T04:51:08;1.80;;;1.80;;
19643;SDS011;9970;-36.854;174.870;2023-07-08T04:53:41;5.20;;;2.53;;
19643;SDS011;9970;-36.854;174.870;2023-07-08T04:56:14;1.73;;;1.73;;
19643;SDS011;9970;-36.854;174.870;2023-07-08T04:58:47;1.90;;;1.73;;
19643;SDS011;9970;-36.854;174.870;2023-07-08T05:01:20;1.80;;;1.80;;
19643;SDS011;9970;-36.854;174.870;2023-07-08T05:03:53;4.90;;;3.33;;
19643;SDS011;9970;-36.854;174.870;2023-07-08T05:06:28;2.43;;;2.23;;
19643;SDS011;9970;-36.854;174.870;2023-07-08T05:09:01;2.10;;;1.90;;
19643;SDS011;9970;-36.854;174.870;2023-07-08T05:11:35;2.80;;;1.40;;
19643;SDS011;9970;-36.854;174.870;2023-07-08T05:14:11;1.37;;;1.37;;
19643;SDS011;9970;-36.854;174.870;2023-07-08T05:16:43;1.60;;;1.50;;
19643;SDS011;9970;-36.854;174.870;2023-07-08T05:19:16;1.40;;;1.40;;
19643;SDS011;9970;-36.854;174.870;2023-07-08T05:21:53;2.47;;;2.20;;
19643;SDS011;9970;-36.854;174.870;2023-07-08T05:24:26;2.00;;;1.90;;
19643;SDS011;9970;-36.854;174.870;2023-07-08T05:26:59;5.10;;;4.63;;
19643;SDS011;9970;-36.854;174.870;2023-07-08T05:29:33;4.63;;;4.23;;
19643;SDS011;9970;-36.854;174.870;2023-07-08T05:32:07;5.03;;;4.73;;
19643;SDS011;9970;-36.854;174.870;2023-07-08T05:34:40;3.60;;;3.40;;
19643;SDS011;9970;-36.854;174.870;2023-07-08T05:37:14;5.77;;;5.23;;
19643;SDS011;9970;-36.854;174.870;2023-07-08T05:39:48;11.00;;;4.03;;
19643;SDS011;9970;-36.854;174.870;2023-07-08T05:42:21;6.17;;;3.20;;
19643;SDS011;9970;-36.854;174.870;2023-07-08T05:44:54;3.70;;;3.00;;
19643;SDS011;9970;-36.854;174.870;2023-07-08T05:47:27;3.00;;;2.20;;
19643;SDS011;9970;-36.854;174.870;2023-07-08T05:50:00;3.93;;;3.63;;
19643;SDS011;9970;-36.854;174.870;2023-07-08T05:52:34;6.13;;;5.63;;
19643;SDS011;9970;-36.854;174.870;2023-07-08T05:55:11;7.87;;;5.70;;
19643;SDS011;9970;-36.854;174.870;2023-07-08T05:57:44;6.87;;;6.37;;
19643;SDS011;9970;-36.854;174.870;2023-07-08T06:00:17;10.87;;;9.73;;
19643;SDS011;9970;-36.854;174.870;2023-07-08T06:02:51;7.63;;;6.57;;
19643;SDS011;9970;-36.854;174.870;2023-07-08T06:05:24;13.03;;;4.40;;
19643;SDS011;9970;-36.854;174.870;2023-07-08T06:07:57;3.40;;;3.30;;
19643;SDS011;9970;-36.854;174.870;2023-07-08T06:10:30;5.83;;;5.33;;
19643;SDS011;9970;-36.854;174.870;2023-07-08T06:13:03;10.27;;;6.63;;
19643;SDS011;9970;-36.854;174.870;2023-07-08T06:15:36;8.43;;;7.60;;
19643;SDS011;9970;-36.854;174.870;2023-07-08T06:18:10;15.90;;;8.60;;
19643;SDS011;9970;-36.854;174.870;2023-07-08T06:20:50;21.77;;;12.73;;
19643;SDS011;9970;-36.854;174.870;2023-07-08T06:23:28;14.33;;;9.67;;
19643;SDS011;9970;-36.854;174.870;2023-07-08T06:26:01;12.47;;;9.20;;
19643;SDS011;9970;-36.854;174.870;2023-07-08T06:28:34;10.23;;;9.20;;
19643;SDS011;9970;-36.854;174.870;2023-07-08T06:31:07;19.00;;;15.37;;
19643;SDS011;9970;-36.854;174.870;2023-07-08T06:33:40;25.30;;;16.20;;
19643;SDS011;9970;-36.854;174.870;2023-07-08T06:36:13;28.67;;;22.57;;
19643;SDS011;9970;-36.854;174.870;2023-07-08T06:38:46;73.70;;;26.03;;
19643;SDS011;9970;-36.854;174.870;2023-07-08T06:41:19;24.77;;;18.37;;
19643;SDS011;9970;-36.854;174.870;2023-07-08T06:43:53;20.10;;;15.07;;
19643;SDS011;9970;-36.854;174.870;2023-07-08T06:46:26;14.60;;;12.93;;
19643;SDS011;9970;-36.854;174.870;2023-07-08T06:48:59;19.83;;;13.60;;
19643;SDS011;9970;-36.854;174.870;2023-07-08T06:51:32;17.73;;;11.40;;
19643;SDS011;9970;-36.854;174.870;2023-07-08T06:54:05;12.70;;;10.63;;
19643;SDS011;9970;-36.854;174.870;2023-07-08T06:56:40;11.10;;;9.00;;
19643;SDS011;9970;-36.854;174.870;2023-07-08T06:59:13;33.27;;;16.93;;
19643;SDS011;9970;-36.854;174.870;2023-07-08T07:01:46;68.90;;;28.90;;
19643;SDS011;9970;-36.854;174.870;2023-07-08T07:04:22;62.27;;;31.40;;
19643;SDS011;9970;-36.854;174.870;2023-07-08T07:06:55;42.70;;;23.33;;
19643;SDS011;9970;-36.854;174.870;2023-07-08T07:09:28;18.57;;;13.23;;
19643;SDS011;9970;-36.854;174.870;2023-07-08T07:12:02;19.90;;;13.70;;
19643;SDS011;9970;-36.854;174.870;2023-07-08T07:14:36;12.63;;;6.57;;
19643;SDS011;9970;-36.854;174.870;2023-07-08T07:17:13;10.40;;;7.57;;
19643;SDS011;9970;-36.854;174.870;2023-07-08T07:19:46;9.03;;;5.83;;
19643;SDS011;9970;-36.854;174.870;2023-07-08T07:22:20;6.73;;;5.33;;
19643;SDS011;9970;-36.854;174.870;2023-07-08T07:24:52;6.10;;;4.67;;
19643;SDS011;9970;-36.854;174.870;2023-07-08T07:27:26;4.33;;;4.00;;
19643;SDS011;9970;-36.854;174.870;2023-07-08T07:29:59;4.73;;;4.17;;
19643;SDS011;9970;-36.854;174.870;2023-07-08T07:32:32;4.70;;;4.30;;
19643;SDS011;9970;-36.854;174.870;2023-07-08T07:35:05;8.37;;;5.20;;
19643;SDS011;9970;-36.854;174.870;2023-07-08T07:37:41;4.33;;;4.03;;
19643;SDS011;9970;-36.854;174.870;2023-07-08T07:40:15;9.20;;;4.73;;
19643;SDS011;9970;-36.854;174.870;2023-07-08T07:42:48;6.23;;;5.73;;
19643;SDS011;9970;-36.854;174.870;2023-07-08T07:45:21;6.57;;;5.03;;
19643;SDS011;9970;-36.854;174.870;2023-07-08T07:47:54;3.90;;;3.70;;
19643;SDS011;9970;-36.854;174.870;2023-07-08T07:50:27;4.33;;;3.63;;
19643;SDS011;9970;-36.854;174.870;2023-07-08T07:53:00;4.50;;;4.10;;
19643;SDS011;9970;-36.854;174.870;2023-07-08T07:55:33;4.53;;;3.93;;
19643;SDS011;9970;-36.854;174.870;2023-07-08T07:58:06;4.23;;;4.00;;
19643;SDS011;9970;-36.854;174.870;2023-07-08T08:00:40;4.93;;;4.10;;
19643;SDS011;9970;-36.854;174.870;2023-07-08T08:03:13;5.17;;;4.97;;
19643;SDS011;9970;-36.854;174.870;2023-07-08T08:05:48;13.20;;;7.23;;
19643;SDS011;9970;-36.854;174.870;2023-07-08T08:08:21;4.70;;;4.40;;
19643;SDS011;9970;-36.854;174.870;2023-07-08T08:10:54;5.47;;;3.67;;
19643;SDS011;9970;-36.854;174.870;2023-07-08T08:13:28;3.87;;;3.50;;
19643;SDS011;9970;-36.854;174.870;2023-07-08T08:16:01;4.50;;;3.33;;
19643;SDS011;9970;-36.854;174.870;2023-07-08T08:18:34;7.83;;;3.90;;
19643;SDS011;9970;-36.854;174.870;2023-07-08T08:21:07;5.00;;;4.60;;
19643;SDS011;9970;-36.854;174.870;2023-07-08T08:23:40;4.30;;;4.03;;
19643;SDS011;9970;-36.854;174.870;2023-07-08T08:26:13;4.10;;;3.73;;
19643;SDS011;9970;-36.854;174.870;2023-07-08T08:28:46;4.03;;;3.73;;
19643;SDS011;9970;-36.854;174.870;2023-07-08T08:31:19;4.10;;;3.83;;
19643;SDS011;9970;-36.854;174.870;2023-07-08T08:33:53;5.80;;;3.07;;
19643;SDS011;9970;-36.854;174.870;2023-07-08T08:36:26;3.37;;;3.20;;
19643;SDS011;9970;-36.854;174.870;2023-07-08T08:38:59;4.60;;;3.77;;
19643;SDS011;9970;-36.854;174.870;2023-07-08T08:41:33;9.30;;;7.10;;
19643;SDS011;9970;-36.854;174.870;2023-07-08T08:44:09;6.27;;;5.33;;
19643;SDS011;9970;-36.854;174.870;2023-07-08T08:46:48;7.30;;;5.70;;
19643;SDS011;9970;-36.854;174.870;2023-07-08T08:49:43;4.57;;;3.80;;
19643;SDS011;9970;-36.854;174.870;2023-07-08T08:52:14;4.60;;;3.30;;
19643;SDS011;9970;-36.854;174.870;2023-07-08T08:54:47;4.63;;;4.40;;
19643;SDS011;9970;-36.854;174.870;2023-07-08T09:00:15;8.00;;;4.70;;
19643;SDS011;9970;-36.854;174.870;2023-07-08T09:05:27;4.17;;;3.87;;
19643;SDS011;9970;-36.854;174.870;2023-07-08T09:08:02;4.93;;;4.43;;
19643;SDS011;9970;-36.854;174.870;2023-07-08T09:16:18;6.37;;;4.77;;
19643;SDS011;9970;-36.854;174.870;2023-07-08T09:19:03;7.33;;;5.10;;
19643;SDS011;9970;-36.854;174.870;2023-07-08T09:21:49;9.50;;;6.30;;
19643;SDS011;9970;-36.854;174.870;2023-07-08T09:24:41;5.80;;;5.37;;
19643;SDS011;9970;-36.854;174.870;2023-07-08T09:27:12;12.50;;;6.00;;
19643;SDS011;9970;-36.854;174.870;2023-07-08T09:29:45;5.03;;;4.53;;
19643;SDS011;9970;-36.854;174.870;2023-07-08T09:32:19;7.37;;;4.97;;
19643;SDS011;9970;-36.854;174.870;2023-07-08T09:34:54;5.10;;;4.70;;
19643;SDS011;9970;-36.854;174.870;2023-07-08T09:37:29;5.80;;;4.83;;
19643;SDS011;9970;-36.854;174.870;2023-07-08T09:40:10;8.50;;;5.33;;
19643;SDS011;9970;-36.854;174.870;2023-07-08T09:42:52;13.87;;;5.80;;
19643;SDS011;9970;-36.854;174.870;2023-07-08T09:45:27;12.53;;;5.53;;
19643;SDS011;9970;-36.854;174.870;2023-07-08T09:48:01;9.30;;;6.20;;
19643;SDS011;9970;-36.854;174.870;2023-07-08T09:50:34;4.87;;;4.57;;
19643;SDS011;9970;-36.854;174.870;2023-07-08T09:53:11;5.43;;;4.93;;
19643;SDS011;9970;-36.854;174.870;2023-07-08T09:55:43;21.60;;;7.43;;
19643;SDS011;9970;-36.854;174.870;2023-07-08T10:01:15;7.70;;;6.10;;
19643;SDS011;9970;-36.854;174.870;2023-07-08T10:03:52;8.57;;;6.93;;
19643;SDS011;9970;-36.854;174.870;2023-07-08T10:06:30;10.20;;;6.80;;
19643;SDS011;9970;-36.854;174.870;2023-07-08T10:11:47;15.23;;;6.90;;
19643;SDS011;9970;-36.854;174.870;2023-07-08T10:14:26;8.47;;;7.57;;
19643;SDS011;9970;-36.854;174.870;2023-07-08T10:17:00;12.43;;;7.07;;
19643;SDS011;9970;-36.854;174.870;2023-07-08T10:19:33;7.50;;;6.53;;
19643;SDS011;9970;-36.854;174.870;2023-07-08T10:22:22;7.57;;;6.80;;
19643;SDS011;9970;-36.854;174.870;2023-07-08T10:25:24;14.50;;;7.67;;
19643;SDS011;9970;-36.854;174.870;2023-07-08T10:37:17;7.50;;;3.93;;
19643;SDS011;9970;-36.854;174.870;2023-07-08T10:45:53;7.47;;;3.03;;
19643;SDS011;9970;-36.854;174.870;2023-07-08T11:05:52;4.70;;;3.47;;
19643;SDS011;9970;-36.854;174.870;2023-07-08T11:11:12;5.40;;;4.70;;
19643;SDS011;9970;-36.854;174.870;2023-07-08T11:13:53;6.63;;;4.20;;
19643;SDS011;9970;-36.854;174.870;2023-07-08T11:16:32;3.90;;;3.70;;
19643;SDS011;9970;-36.854;174.870;2023-07-08T11:19:08;6.03;;;5.43;;
19643;SDS011;9970;-36.854;174.870;2023-07-08T11:21:47;12.70;;;4.80;;
19643;SDS011;9970;-36.854;174.870;2023-07-08T11:24:35;7.57;;;4.60;;
19643;SDS011;9970;-36.854;174.870;2023-07-08T11:27:15;9.50;;;4.53;;
19643;SDS011;9970;-36.854;174.870;2023-07-08T11:32:48;4.43;;;4.03;;
19643;SDS011;9970;-36.854;174.870;2023-07-08T11:35:32;5.20;;;4.80;;
19643;SDS011;9970;-36.854;174.870;2023-07-08T11:38:01;6.07;;;5.40;;
19643;SDS011;9970;-36.854;174.870;2023-07-08T11:40:37;6.30;;;5.70;;
19643;SDS011;9970;-36.854;174.870;2023-07-08T11:43:12;10.07;;;5.13;;
19643;SDS011;9970;-36.854;174.870;2023-07-08T11:45:45;8.43;;;5.33;;
19643;SDS011;9970;-36.854;174.870;2023-07-08T11:48:25;5.90;;;4.40;;
19643;SDS011;9970;-36.854;174.870;2023-07-08T11:50:59;15.23;;;5.50;;
19643;SDS011;9970;-36.854;174.870;2023-07-08T11:53:38;6.43;;;4.33;;
19643;SDS011;9970;-36.854;174.870;2023-07-08T12:01:45;5.97;;;4.33;;
19643;SDS011;9970;-36.854;174.870;2023-07-08T12:04:32;4.47;;;4.17;;
19643;SDS011;9970;-36.854;174.870;2023-07-08T12:07:14;8.73;;;4.57;;
19643;SDS011;9970;-36.854;174.870;2023-07-08T12:10:02;9.30;;;5.70;;
19643;SDS011;9970;-36.854;174.870;2023-07-08T12:12:35;7.60;;;4.40;;
19643;SDS011;9970;-36.854;174.870;2023-07-08T12:17:45;5.27;;;4.63;;
19643;SDS011;9970;-36.854;174.870;2023-07-08T12:20:29;4.20;;;3.90;;
19643;SDS011;9970;-36.854;174.870;2023-07-08T12:23:03;5.23;;;4.77;;
19643;SDS011;9970;-36.854;174.870;2023-07-08T12:25:43;4.60;;;4.30;;
19643;SDS011;9970;-36.854;174.870;2023-07-08T12:28:16;4.13;;;3.73;;
19643;SDS011;9970;-36.854;174.870;2023-07-08T12:30:50;8.27;;;5.33;;
19643;SDS011;9970;-36.854;174.870;2023-07-08T12:33:26;10.27;;;4.87;;
19643;SDS011;9970;-36.854;174.870;2023-07-08T12:35:59;5.17;;;4.10;;
19643;SDS011;9970;-36.854;174.870;2023-07-08T12:38:39;23.17;;;4.97;;
19643;SDS011;9970;-36.854;174.870;2023-07-08T12:41:16;6.33;;;4.87;;
19643;SDS011;9970;-36.854;174.870;2023-07-08T12:43:50;9.03;;;4.47;;
19643;SDS011;9970;-36.854;174.870;2023-07-08T12:46:24;5.07;;;4.63;;
19643;SDS011;9970;-36.854;174.870;2023-07-08T12:48:57;6.73;;;4.93;;
19643;SDS011;9970;-36.854;174.870;2023-07-08T12:51:34;11.60;;;4.77;;
19643;SDS011;9970;-36.854;174.870;2023-07-08T12:54:08;3.90;;;3.60;;
19643;SDS011;9970;-36.854;174.870;2023-07-08T12:56:42;4.93;;;4.53;;
19643;SDS011;9970;-36.854;174.870;2023-07-08T12:59:19;9.63;;;4.90;;
19643;SDS011;9970;-36.854;174.870;2023-07-08T13:01:54;6.00;;;4.80;;
19643;SDS011;9970;-36.854;174.870;2023-07-08T13:04:27;6.43;;;4.90;;
19643;SDS011;9970;-36.854;174.870;2023-07-08T13:07:01;8.53;;;4.43;;
19643;SDS011;9970;-36.854;174.870;2023-07-08T13:09:44;6.10;;;4.70;;
19643;SDS011;9970;-36.854;174.870;2023-07-08T13:12:19;12.90;;;4.80;;
19643;SDS011;9970;-36.854;174.870;2023-07-08T13:14:54;4.50;;;4.10;;
19643;SDS011;9970;-36.854;174.870;2023-07-08T13:17:29;4.30;;;3.80;;
19643;SDS011;9970;-36.854;174.870;2023-07-08T13:20:04;4.10;;;3.27;;
19643;SDS011;9970;-36.854;174.870;2023-07-08T13:22:38;4.43;;;3.53;;
19643;SDS011;9970;-36.854;174.870;2023-07-08T13:25:16;3.50;;;3.20;;
19643;SDS011;9970;-36.854;174.870;2023-07-08T13:27:57;2.90;;;2.80;;
19643;SDS011;9970;-36.854;174.870;2023-07-08T13:30:32;4.00;;;3.23;;
19643;SDS011;9970;-36.854;174.870;2023-07-08T13:33:14;4.83;;;3.67;;
19643;SDS011;9970;-36.854;174.870;2023-07-08T13:35:49;5.40;;;4.43;;
19643;SDS011;9970;-36.854;174.870;2023-07-08T13:38:25;5.90;;;3.63;;
19643;SDS011;9970;-36.854;174.870;2023-07-08T13:41:00;5.43;;;4.10;;
19643;SDS011;9970;-36.854;174.870;2023-07-08T13:43:37;5.90;;;3.70;;
19643;SDS011;9970;-36.854;174.870;2023-07-08T13:49:14;4.87;;;4.07;;
19643;SDS011;9970;-36.854;174.870;2023-07-08T13:51:49;9.47;;;3.80;;
19643;SDS011;9970;-36.854;174.870;2023-07-08T13:54:23;7.87;;;4.93;;
19643;SDS011;9970;-36.854;174.870;2023-07-08T13:56:59;3.33;;;3.13;;
19643;SDS011;9970;-36.854;174.870;2023-07-08T13:59:35;3.43;;;3.23;;
19643;SDS011;9970;-36.854;174.870;2023-07-08T14:02:15;3.93;;;3.43;;
19643;SDS011;9970;-36.854;174.870;2023-07-08T14:04:53;7.67;;;3.40;;
19643;SDS011;9970;-36.854;174.870;2023-07-08T14:07:32;5.07;;;4.13;;
19643;SDS011;9970;-36.854;174.870;2023-07-08T14:10:03;4.17;;;3.77;;
19643;SDS011;9970;-36.854;174.870;2023-07-08T14:12:37;4.23;;;4.03;;
19643;SDS011;9970;-36.854;174.870;2023-07-08T14:15:10;4.47;;;4.17;;
19643;SDS011;9970;-36.854;174.870;2023-07-08T14:17:43;4.97;;;3.83;;
19643;SDS011;9970;-36.854;174.870;2023-07-08T14:20:16;4.37;;;3.57;;
19643;SDS011;9970;-36.854;174.870;2023-07-08T14:22:50;4.20;;;3.80;;
19643;SDS011;9970;-36.854;174.870;2023-07-08T14:25:22;4.20;;;3.37;;
19643;SDS011;9970;-36.854;174.870;2023-07-08T14:27:58;5.97;;;4.07;;
19643;SDS011;9970;-36.854;174.870;2023-07-08T14:30:32;9.00;;;3.70;;
19643;SDS011;9970;-36.854;174.870;2023-07-08T14:33:08;5.13;;;3.00;;
19643;SDS011;9970;-36.854;174.870;2023-07-08T14:35:43;3.30;;;2.90;;
19643;SDS011;9970;-36.854;174.870;2023-07-08T14:38:16;2.90;;;2.70;;
19643;SDS011;9970;-36.854;174.870;2023-07-08T14:40:49;5.80;;;3.03;;
19643;SDS011;9970;-36.854;174.870;2023-07-08T14:43:24;3.47;;;3.30;;
19643;SDS011;9970;-36.854;174.870;2023-07-08T14:46:02;3.33;;;3.07;;
19643;SDS011;9970;-36.854;174.870;2023-07-08T14:48:37;3.67;;;3.13;;
19643;SDS011;9970;-36.854;174.870;2023-07-08T14:51:10;3.43;;;3.07;;
19643;SDS011;9970;-36.854;174.870;2023-07-08T14:53:43;3.87;;;3.57;;
19643;SDS011;9970;-36.854;174.870;2023-07-08T14:56:16;10.87;;;3.30;;
19643;SDS011;9970;-36.854;174.870;2023-07-08T14:58:49;3.43;;;3.17;;
19643;SDS011;9970;-36.854;174.870;2023-07-08T15:01:23;2.83;;;2.63;;
19643;SDS011;9970;-36.854;174.870;2023-07-08T15:03:58;3.00;;;2.90;;
19643;SDS011;9970;-36.854;174.870;2023-07-08T15:06:31;3.10;;;2.87;;
19643;SDS011;9970;-36.854;174.870;2023-07-08T15:09:05;3.37;;;3.07;;
19643;SDS011;9970;-36.854;174.870;2023-07-08T15:11:38;3.07;;;2.97;;
19643;SDS011;9970;-36.854;174.870;2023-07-08T15:14:23;4.97;;;3.50;;
19643;SDS011;9970;-36.854;174.870;2023-07-08T15:16:57;3.53;;;3.30;;
19643;SDS011;9970;-36.854;174.870;2023-07-08T15:19:31;5.60;;;3.17;;
19643;SDS011;9970;-36.854;174.870;2023-07-08T15:22:05;4.80;;;4.50;;
19643;SDS011;9970;-36.854;174.870;2023-07-08T15:24:38;2.93;;;2.73;;
19643;SDS011;9970;-36.854;174.870;2023-07-08T15:27:11;2.80;;;2.43;;
19643;SDS011;9970;-36.854;174.870;2023-07-08T15:29:45;5.37;;;2.87;;
19643;SDS011;9970;-36.854;174.870;2023-07-08T15:32:18;3.23;;;3.03;;
19643;SDS011;9970;-36.854;174.870;2023-07-08T15:34:52;2.93;;;2.83;;
19643;SDS011;9970;-36.854;174.870;2023-07-08T15:37:31;5.90;;;3.40;;
19643;SDS011;9970;-36.854;174.870;2023-07-08T15:40:04;2.73;;;2.60;;
19643;SDS011;9970;-36.854;174.870;2023-07-08T15:42:38;2.93;;;2.80;;
19643;SDS011;9970;-36.854;174.870;2023-07-08T15:45:25;7.70;;;4.17;;
19643;SDS011;9970;-36.854;174.870;2023-07-08T15:48:00;2.50;;;2.40;;
19643;SDS011;9970;-36.854;174.870;2023-07-08T15:50:34;2.80;;;2.60;;
19643;SDS011;9970;-36.854;174.870;2023-07-08T15:53:07;3.03;;;2.80;;
19643;SDS011;9970;-36.854;174.870;2023-07-08T15:55:41;4.30;;;2.50;;
19643;SDS011;9970;-36.854;174.870;2023-07-08T15:58:27;6.37;;;3.07;;
19643;SDS011;9970;-36.854;174.870;2023-07-08T16:01:02;4.13;;;3.90;;
19643;SDS011;9970;-36.854;174.870;2023-07-08T16:03:35;6.67;;;4.33;;
19643;SDS011;9970;-36.854;174.870;2023-07-08T16:06:09;4.40;;;3.73;;
19643;SDS011;9970;-36.854;174.870;2023-07-08T16:08:42;6.70;;;3.37;;
19643;SDS011;9970;-36.854;174.870;2023-07-08T16:11:28;3.57;;;3.37;;
19643;SDS011;9970;-36.854;174.870;2023-07-08T16:13:54;5.33;;;3.60;;
19643;SDS011;9970;-36.854;174.870;2023-07-08T16:16:28;3.20;;;3.00;;
19643;SDS011;9970;-36.854;174.870;2023-07-08T16:19:01;2.73;;;2.63;;